createdAt,value
2018-06-01T00:01:41.211Z,80.00
2018-06-01T00:04:08.763Z,80.10
2018-06-01T00:06:36.291Z,80.20
2018-06-01T00:09:03.842Z,80.20
2018-06-01T00:11:32.164Z,80.10
2018-06-01T00:13:59.708Z,80.00
2018-06-01T00:16:27.229Z,80.30
2018-06-01T00:18:54.772Z,80.30
2018-06-01T00:21:22.291Z,80.50
2018-06-01T00:23:49.821Z,80.70
2018-06-01T00:26:17.346Z,80.70
2018-06-01T00:28:44.901Z,80.80
2018-06-01T00:31:12.419Z,80.80
2018-06-01T00:33:39.942Z,80.70
2018-06-01T00:36:07.466Z,80.90
2018-06-01T00:38:34.992Z,81.20
2018-06-01T00:41:02.530Z,81.30
2018-06-01T00:43:30.049Z,81.60
2018-06-01T00:45:57.589Z,81.40
2018-06-01T00:48:25.139Z,81.30
2018-06-01T00:50:52.660Z,81.20
2018-06-01T00:53:20.180Z,81.10
2018-06-01T00:55:47.695Z,81.30
2018-06-01T00:58:15.220Z,81.40
2018-06-01T01:00:42.744Z,81.30
2018-06-01T01:03:10.275Z,81.20
2018-06-01T01:05:37.788Z,81.30
2018-06-01T01:08:05.306Z,81.20
2018-06-01T01:10:32.832Z,81.30
2018-06-01T01:13:00.364Z,81.50
2018-06-01T01:15:27.885Z,81.50
2018-06-01T01:17:55.415Z,81.50
2018-06-01T01:20:22.934Z,81.60
2018-06-01T01:22:50.468Z,81.30
2018-06-01T01:25:17.987Z,81.50
2018-06-01T01:27:45.564Z,81.40
2018-06-01T01:30:13.088Z,81.60
2018-06-01T01:32:40.611Z,81.40
2018-06-01T01:35:08.132Z,81.40
2018-06-01T01:37:35.651Z,81.50
2018-06-01T01:40:03.176Z,81.60
2018-06-01T01:42:31.027Z,81.30
2018-06-01T01:44:58.559Z,81.30
2018-06-01T01:47:26.087Z,81.30
2018-06-01T01:49:53.618Z,81.10
2018-06-01T01:52:21.135Z,81.20
2018-06-01T01:54:49.427Z,81.10
2018-06-01T01:57:16.967Z,81.10
2018-06-01T01:59:44.495Z,81.70
2018-06-01T02:02:12.007Z,81.00
2018-06-01T02:04:40.300Z,80.80
2018-06-01T02:07:07.826Z,80.70
2018-06-01T02:09:35.344Z,80.80
2018-06-01T02:12:02.874Z,80.80
2018-06-01T02:14:30.389Z,80.80
2018-06-01T02:16:57.905Z,80.80
2018-06-01T02:19:25.422Z,81.00
2018-06-01T02:21:53.010Z,81.00
2018-06-01T02:24:20.499Z,80.70
2018-06-01T02:26:48.035Z,80.70
2018-06-01T02:29:16.697Z,80.70
2018-06-01T02:31:45.000Z,80.80
2018-06-01T02:34:12.526Z,80.80
2018-06-01T02:36:40.043Z,80.50
2018-06-01T02:39:07.559Z,80.60
2018-06-01T02:41:35.072Z,80.90
2018-06-01T02:44:02.593Z,80.90
2018-06-01T02:46:30.123Z,80.90
2018-06-01T02:48:57.641Z,80.90
2018-06-01T02:51:25.160Z,80.70
2018-06-01T02:53:52.680Z,80.60
2018-06-01T02:56:20.212Z,80.70
2018-06-01T02:58:47.735Z,80.50
2018-06-01T03:01:16.024Z,80.70
2018-06-01T03:03:43.557Z,80.70
2018-06-01T03:06:11.079Z,80.80
2018-06-01T03:08:38.611Z,80.90
2018-06-01T03:11:06.127Z,81.10
2018-06-01T03:13:33.644Z,81.40
2018-06-01T03:16:01.987Z,81.40
2018-06-01T03:18:29.510Z,81.60
2018-06-01T03:20:57.051Z,81.70
2018-06-01T03:23:24.803Z,81.60
2018-06-01T03:25:52.338Z,81.60
2018-06-01T03:28:19.871Z,81.30
2018-06-01T03:30:47.413Z,81.50
2018-06-01T03:33:14.995Z,81.70
2018-06-01T03:35:42.530Z,81.60
2018-06-01T03:38:10.051Z,81.40
2018-06-01T03:40:38.330Z,81.50
2018-06-01T03:43:05.843Z,81.50
2018-06-01T03:45:33.362Z,81.50
2018-06-01T03:48:00.884Z,81.50
2018-06-01T03:50:28.722Z,81.60
2018-06-01T03:52:56.234Z,81.50
2018-06-01T03:55:23.768Z,81.50
2018-06-01T03:57:51.288Z,82.30
2018-06-01T04:00:18.812Z,81.60
2018-06-01T04:02:46.356Z,81.50
2018-06-01T04:05:13.888Z,81.30
2018-06-01T04:07:41.413Z,81.10
2018-06-01T04:10:09.746Z,81.00
2018-06-01T04:12:37.262Z,80.90
2018-06-01T04:15:04.784Z,80.90
2018-06-01T04:17:32.327Z,80.80
2018-06-01T04:19:59.846Z,80.70
2018-06-01T04:22:27.413Z,80.80
2018-06-01T04:24:54.939Z,80.90
2018-06-01T04:27:22.466Z,80.70
2018-06-01T04:29:49.991Z,80.80
2018-06-01T04:32:17.519Z,80.80
2018-06-01T04:34:45.047Z,80.70
2018-06-01T04:37:12.583Z,80.90
2018-06-01T04:39:40.108Z,80.90
2018-06-01T04:42:07.627Z,80.80
2018-06-01T04:44:35.163Z,81.00
2018-06-01T04:47:02.683Z,80.70
2018-06-01T04:49:30.224Z,80.50
2018-06-01T04:51:57.746Z,80.50
2018-06-01T04:54:25.287Z,80.30
2018-06-01T04:56:52.803Z,80.30
2018-06-01T04:59:21.083Z,80.20
2018-06-01T05:01:48.626Z,80.20
2018-06-01T05:04:16.148Z,80.00
2018-06-01T05:06:43.678Z,80.00
2018-06-01T05:09:11.196Z,80.00
2018-06-01T05:11:38.739Z,79.80
2018-06-01T05:14:07.020Z,79.90
2018-06-01T05:16:34.604Z,79.90
2018-06-01T05:19:02.082Z,79.70
2018-06-01T05:21:29.623Z,79.60
2018-06-01T05:23:57.146Z,79.30
2018-06-01T05:26:24.671Z,79.30
2018-06-01T05:28:52.204Z,79.20
2018-06-01T05:31:19.759Z,79.10
2018-06-01T05:33:48.070Z,79.10
2018-06-01T05:36:15.593Z,79.90
2018-06-01T05:38:43.138Z,78.80
2018-06-01T05:41:10.656Z,78.70
2018-06-01T05:43:38.172Z,78.80
2018-06-01T05:46:05.694Z,78.90
2018-06-01T05:48:33.212Z,78.80
2018-06-01T05:51:00.737Z,78.40
2018-06-01T05:53:28.273Z,78.00
2018-06-01T05:55:55.799Z,78.20
2018-06-01T05:58:23.322Z,77.70
2018-06-01T06:00:50.876Z,77.60
2018-06-01T06:03:18.395Z,77.70
2018-06-01T06:05:45.915Z,77.60
2018-06-01T06:08:13.437Z,77.50
2018-06-01T06:10:40.951Z,77.30
2018-06-01T06:13:08.484Z,76.60
2018-06-01T06:15:35.998Z,75.60
2018-06-01T06:18:03.523Z,73.90
2018-06-01T06:20:31.038Z,72.10
2018-06-01T06:22:58.556Z,71.10
2018-06-01T06:25:26.077Z,69.90
2018-06-01T06:27:53.668Z,68.00
2018-06-01T06:30:21.191Z,66.00
2018-06-01T06:32:48.710Z,64.30
2018-06-01T06:35:16.239Z,62.80
2018-06-01T06:37:43.807Z,60.20
2018-06-01T06:40:11.315Z,58.00
2018-06-01T06:42:38.851Z,56.10
2018-06-01T06:45:06.377Z,53.70
2018-06-01T06:47:33.895Z,52.30
2018-06-01T06:50:01.420Z,50.70
2018-06-01T06:52:28.964Z,49.70
2018-06-01T06:54:57.253Z,47.80
2018-06-01T06:57:24.780Z,47.30
2018-06-01T06:59:52.319Z,46.00
2018-06-01T07:02:19.850Z,45.20
2018-06-01T07:04:47.383Z,44.30
2018-06-01T07:07:14.921Z,44.30
2018-06-01T07:09:42.449Z,43.20
2018-06-01T07:12:09.976Z,43.80
2018-06-01T07:14:37.507Z,44.00
2018-06-01T07:17:05.032Z,43.40
2018-06-01T07:19:32.556Z,43.20
2018-06-01T07:22:02.118Z,44.50
2018-06-01T07:24:29.638Z,44.50
2018-06-01T07:26:57.166Z,45.30
2018-06-01T07:29:24.687Z,46.90
2018-06-01T07:31:52.210Z,48.40
2018-06-01T07:34:19.732Z,49.30
2018-06-01T07:36:47.295Z,51.00
2018-06-01T07:39:18.810Z,52.70
2018-06-01T07:41:48.756Z,53.90
2018-06-01T07:44:16.283Z,55.00
2018-06-01T07:46:43.983Z,56.30
2018-06-01T07:49:11.498Z,56.70
2018-06-01T07:51:39.028Z,57.10
2018-06-01T07:54:06.546Z,56.90
2018-06-01T07:56:34.063Z,57.00
2018-06-01T07:59:01.588Z,57.70
2018-06-01T08:01:29.110Z,58.40
2018-06-01T08:03:56.637Z,58.80
2018-06-01T08:06:24.164Z,59.60
2018-06-01T08:08:51.692Z,60.20
2018-06-01T08:11:19.215Z,61.50
2018-06-01T08:13:46.775Z,62.40
2018-06-01T08:16:14.301Z,63.20
2018-06-01T08:18:41.831Z,64.00
2018-06-01T08:21:09.360Z,65.00
2018-06-01T08:23:36.911Z,65.20
2018-06-01T08:26:04.432Z,65.90
2018-06-01T08:28:31.966Z,66.70
2018-06-01T08:30:59.491Z,67.20
2018-06-01T08:33:27.238Z,67.50
2018-06-01T08:35:55.659Z,67.90
2018-06-01T08:38:23.195Z,68.60
2018-06-01T08:40:50.755Z,69.60
2018-06-01T08:43:18.293Z,69.20
2018-06-01T08:45:45.820Z,69.60
2018-06-01T08:48:14.165Z,69.60
2018-06-01T08:50:41.683Z,69.40
2018-06-01T08:53:09.208Z,69.70
2018-06-01T08:55:36.736Z,70.40
2018-06-01T08:58:05.026Z,71.50
2018-06-01T09:00:32.559Z,71.50
2018-06-01T09:03:00.076Z,71.30
2018-06-01T09:05:27.627Z,71.10
2018-06-01T09:07:55.140Z,71.80
2018-06-01T09:10:23.557Z,71.30
2018-06-01T09:12:51.055Z,71.40
2018-06-01T09:15:18.577Z,71.50
2018-06-01T09:17:48.035Z,72.30
2018-06-01T09:20:15.711Z,72.90
2018-06-01T09:22:43.251Z,73.60
2018-06-01T09:25:10.778Z,74.10
2018-06-01T09:27:38.327Z,74.80
2018-06-01T09:30:05.851Z,75.20
2018-06-01T09:32:33.371Z,75.00
2018-06-01T09:35:00.894Z,75.30
2018-06-01T09:37:28.419Z,76.10
2018-06-01T09:39:55.987Z,77.00
2018-06-01T09:42:23.503Z,77.40
2018-06-01T09:44:51.027Z,77.20
2018-06-01T09:47:19.303Z,77.10
2018-06-01T09:49:47.578Z,77.30
2018-06-01T09:52:15.111Z,77.20
2018-06-01T09:54:42.642Z,77.30
2018-06-01T09:57:10.163Z,76.70
2018-06-01T09:59:37.690Z,77.20
2018-06-01T10:02:05.212Z,77.60
2018-06-01T10:04:32.730Z,77.70
2018-06-01T10:07:00.243Z,77.50
2018-06-01T10:09:27.808Z,77.60
2018-06-01T10:11:55.335Z,78.00
2018-06-01T10:14:22.855Z,77.90
2018-06-01T10:16:50.376Z,77.10
2018-06-01T10:19:17.894Z,76.40
2018-06-01T10:21:45.440Z,76.90
2018-06-01T10:24:12.964Z,76.80
2018-06-01T10:26:40.483Z,76.70
2018-06-01T10:29:08.016Z,76.70
2018-06-01T10:31:35.539Z,76.30
2018-06-01T10:34:03.060Z,76.00
2018-06-01T10:36:30.582Z,75.80
2018-06-01T10:38:58.103Z,75.50
2018-06-01T10:41:25.627Z,75.50
2018-06-01T10:43:53.148Z,75.80
2018-06-01T10:46:20.671Z,74.50
2018-06-01T10:48:48.194Z,74.20
2018-06-01T10:51:16.007Z,74.00
2018-06-01T10:53:43.532Z,73.80
2018-06-01T10:56:11.063Z,71.30
2018-06-01T10:58:38.584Z,70.70
2018-06-01T11:01:06.111Z,69.80
2018-06-01T11:03:33.627Z,67.40
2018-06-01T11:06:01.149Z,68.30
2018-06-01T11:08:28.672Z,67.40
2018-06-01T11:10:56.212Z,67.00
2018-06-01T11:13:23.740Z,67.30
2018-06-01T11:15:51.258Z,67.70
2018-06-01T11:18:18.826Z,68.40
2018-06-01T11:20:46.343Z,66.40
2018-06-01T11:23:14.560Z,66.70
2018-06-01T11:25:42.079Z,66.90
2018-06-01T11:28:09.604Z,66.50
2018-06-01T11:30:37.900Z,66.20
2018-06-01T11:33:05.415Z,66.20
2018-06-01T11:35:32.938Z,64.70
2018-06-01T11:38:00.459Z,66.00
2018-06-01T11:40:27.983Z,64.80
2018-06-01T11:42:55.497Z,65.90
2018-06-01T11:45:23.018Z,67.00
2018-06-01T11:47:50.558Z,67.90
2018-06-01T11:50:18.109Z,69.20
2018-06-01T11:52:45.623Z,69.80
2018-06-01T11:55:13.142Z,69.60
2018-06-01T11:57:40.668Z,68.80
2018-06-01T12:00:08.198Z,69.50
2018-06-01T12:02:35.711Z,68.40
2018-06-01T12:05:03.234Z,69.60
2018-06-01T12:07:30.755Z,69.50
2018-06-01T12:09:58.270Z,69.20
2018-06-01T12:12:25.782Z,69.60
2018-06-01T12:14:54.075Z,65.40
2018-06-01T12:17:21.610Z,65.40
2018-06-01T12:19:49.132Z,66.70
2018-06-01T12:22:16.647Z,65.70
2018-06-01T12:24:44.163Z,65.80
2018-06-01T12:27:11.675Z,62.60
2018-06-01T12:29:39.186Z,62.30
2018-06-01T12:32:06.707Z,60.40
2018-06-01T12:34:34.223Z,62.40
2018-06-01T12:37:01.747Z,64.10
2018-06-01T12:39:29.268Z,64.10
2018-06-01T12:41:57.563Z,62.90
2018-06-01T12:44:25.272Z,62.80
2018-06-01T12:46:52.816Z,62.60
2018-06-01T12:49:20.338Z,62.00
2018-06-01T12:51:47.870Z,61.50
2018-06-01T12:54:15.403Z,62.50
2018-06-01T12:56:42.924Z,61.40
2018-06-01T12:59:10.440Z,61.10
2018-06-01T13:01:37.958Z,61.20
2018-06-01T13:04:05.485Z,60.10
2018-06-01T13:06:33.015Z,60.20
2018-06-01T13:09:00.550Z,60.80
2018-06-01T13:11:28.072Z,61.10
2018-06-01T13:13:55.590Z,60.20
2018-06-01T13:16:23.104Z,59.10
2018-06-01T13:18:50.641Z,59.80
2018-06-01T13:21:18.931Z,61.10
2018-06-01T13:23:46.454Z,60.40
2018-06-01T13:26:13.963Z,60.80
2018-06-01T13:28:41.483Z,60.90
2018-06-01T13:31:08.995Z,62.30
2018-06-01T13:33:36.515Z,63.70
2018-06-01T13:36:04.807Z,61.50
2018-06-01T13:38:32.342Z,61.50
2018-06-01T13:40:59.862Z,63.00
2018-06-01T13:43:27.420Z,62.90
2018-06-01T13:45:54.940Z,63.50
2018-06-01T13:48:22.462Z,64.30
2018-06-01T13:50:49.974Z,63.10
2018-06-01T13:53:17.499Z,62.30
2018-06-01T13:55:45.023Z,62.30
2018-06-01T13:58:12.543Z,61.60
2018-06-01T14:00:40.828Z,61.20
2018-06-01T14:03:08.354Z,61.10
2018-06-01T14:05:35.883Z,62.50
2018-06-01T14:08:03.398Z,61.50
2018-06-01T14:10:31.684Z,60.20
2018-06-01T14:12:59.228Z,60.10
2018-06-01T14:15:26.751Z,60.90
2018-06-01T14:17:54.263Z,60.80
2018-06-01T14:20:22.542Z,61.30
2018-06-01T14:22:50.069Z,61.10
2018-06-01T14:25:17.599Z,61.80
2018-06-01T14:27:45.118Z,62.30
2018-06-01T14:30:13.393Z,64.20
2018-06-01T14:32:40.915Z,64.20
2018-06-01T14:35:08.442Z,63.60
2018-06-01T14:37:36.045Z,63.90
2018-06-01T14:40:03.510Z,64.90
2018-06-01T14:42:31.037Z,67.00
2018-06-01T14:44:58.556Z,67.10
2018-06-01T14:47:26.079Z,66.80
2018-06-01T14:49:53.591Z,65.60
2018-06-01T14:52:21.107Z,65.30
2018-06-01T14:54:48.628Z,66.00
2018-06-01T14:57:16.146Z,66.60
2018-06-01T14:59:43.664Z,68.50
2018-06-01T15:02:11.183Z,69.10
2018-06-01T15:04:38.695Z,67.70
2018-06-01T15:07:06.212Z,67.80
2018-06-01T15:09:33.740Z,68.50
2018-06-01T15:12:01.267Z,68.30
2018-06-01T15:14:28.776Z,68.90
2018-06-01T15:16:56.299Z,69.10
2018-06-01T15:19:23.819Z,69.90
2018-06-01T15:21:51.349Z,70.00
2018-06-01T15:24:18.871Z,69.30
2018-06-01T15:26:46.551Z,68.90
2018-06-01T15:29:14.079Z,68.70
2018-06-01T15:31:41.592Z,68.90
2018-06-01T15:34:09.880Z,68.70
2018-06-01T15:36:37.395Z,68.70
2018-06-01T15:39:05.706Z,69.10
2018-06-01T15:41:33.219Z,68.90
2018-06-01T15:44:00.730Z,68.60
2018-06-01T15:46:28.258Z,68.40
2018-06-01T15:48:55.836Z,68.30
2018-06-01T15:51:23.331Z,68.30
2018-06-01T15:53:50.851Z,68.00
2018-06-01T15:56:18.376Z,68.20
2018-06-01T15:58:45.904Z,67.40
2018-06-01T16:01:13.432Z,67.30
2018-06-01T16:03:40.947Z,67.60
2018-06-01T16:06:08.466Z,67.10
2018-06-01T16:08:36.011Z,67.90
2018-06-01T16:11:03.532Z,67.50
2018-06-01T16:13:31.059Z,67.40
2018-06-01T16:15:58.580Z,67.50
2018-06-01T16:18:26.095Z,66.70
2018-06-01T16:20:53.613Z,66.60
2018-06-01T16:23:21.130Z,66.70
2018-06-01T16:25:48.644Z,66.90
2018-06-01T16:28:16.169Z,66.60
2018-06-01T16:30:43.698Z,67.00
2018-06-01T16:33:11.218Z,67.30
2018-06-01T16:35:39.499Z,66.40
2018-06-01T16:38:07.031Z,66.30
2018-06-01T16:40:34.545Z,66.50
2018-06-01T16:43:02.084Z,66.70
2018-06-01T16:45:29.599Z,66.90
2018-06-01T16:47:57.166Z,67.10
2018-06-01T16:50:24.659Z,66.50
2018-06-01T16:52:52.187Z,66.00
2018-06-01T16:55:19.694Z,66.70
2018-06-01T16:57:47.215Z,66.90
2018-06-01T17:00:14.733Z,67.10
2018-06-01T17:02:42.262Z,67.30
2018-06-01T17:05:09.809Z,67.50
2018-06-01T17:07:37.330Z,67.80
2018-06-01T17:10:04.842Z,68.00
2018-06-01T17:12:32.367Z,69.10
2018-06-01T17:14:59.874Z,69.30
2018-06-01T17:17:27.405Z,69.60
2018-06-01T17:19:54.923Z,70.00
2018-06-01T17:22:22.443Z,69.90
2018-06-01T17:24:49.967Z,69.70
2018-06-01T17:27:17.499Z,70.00
2018-06-01T17:29:45.025Z,70.20
2018-06-01T17:32:12.547Z,71.20
2018-06-01T17:34:40.071Z,71.00
2018-06-01T17:37:07.591Z,70.90
2018-06-01T17:39:35.110Z,71.40
2018-06-01T17:42:02.627Z,72.00
2018-06-01T17:44:30.148Z,73.10
2018-06-01T17:46:57.658Z,71.90
2018-06-01T17:49:25.181Z,70.70
2018-06-01T17:51:53.110Z,70.00
2018-06-01T17:54:20.626Z,70.30
2018-06-01T17:56:48.143Z,71.30
2018-06-01T17:59:15.661Z,72.30
2018-06-01T18:01:43.170Z,74.00
2018-06-01T18:04:10.683Z,76.00
2018-06-01T18:06:38.207Z,77.30
2018-06-01T18:09:06.460Z,79.40
2018-06-01T18:11:33.983Z,83.40
2018-06-01T18:14:01.526Z,86.20
2018-06-01T18:16:29.816Z,85.60
2018-06-01T18:18:57.342Z,85.40
2018-06-01T18:21:24.861Z,85.90
2018-06-01T18:23:52.374Z,86.60
2018-06-01T18:26:20.650Z,85.80
2018-06-01T18:28:48.959Z,87.10
2018-06-01T18:31:16.486Z,87.00
2018-06-01T18:33:44.010Z,85.20
2018-06-01T18:36:11.531Z,84.70
2018-06-01T18:38:39.067Z,86.20
2018-06-01T18:41:06.615Z,86.30
2018-06-01T18:43:34.279Z,85.70
2018-06-01T18:46:01.811Z,85.60
2018-06-01T18:48:29.334Z,85.30
2018-06-01T18:50:56.849Z,85.70
2018-06-01T18:53:24.386Z,85.50
2018-06-01T18:55:51.905Z,85.60
2018-06-01T18:58:20.182Z,85.30
2018-06-01T19:00:48.386Z,85.30
2018-06-01T19:03:15.914Z,85.20
2018-06-01T19:05:43.443Z,84.90
2018-06-01T19:08:11.041Z,85.00
2018-06-01T19:10:38.520Z,84.60
2018-06-01T19:13:06.075Z,84.80
2018-06-01T19:15:33.591Z,84.30
2018-06-01T19:18:01.114Z,84.50
2018-06-01T19:20:28.631Z,84.50
2018-06-01T19:22:56.919Z,84.70
2018-06-01T19:25:24.453Z,84.60
2018-06-01T19:27:51.975Z,84.60
2018-06-01T19:30:19.482Z,84.40
2018-06-01T19:32:46.999Z,84.20
2018-06-01T19:35:14.518Z,84.40
2018-06-01T19:37:42.039Z,84.30
2018-06-01T19:40:09.604Z,84.10
2018-06-01T19:42:37.127Z,84.20
2018-06-01T19:45:04.639Z,84.30
2018-06-01T19:47:32.154Z,83.70
2018-06-01T19:49:59.674Z,83.20
2018-06-01T19:52:27.415Z,83.20
2018-06-01T19:54:54.939Z,81.80
2018-06-01T19:57:22.464Z,80.90
2018-06-01T19:59:50.868Z,81.10
2018-06-01T20:02:18.389Z,81.10
2018-06-01T20:04:46.679Z,80.70
2018-06-01T20:07:14.370Z,80.60
2018-06-01T20:09:41.882Z,80.70
2018-06-01T20:12:10.169Z,81.00
2018-06-01T20:14:39.703Z,80.90
2018-06-01T20:17:07.272Z,81.10
2018-06-01T20:19:34.783Z,81.80
2018-06-01T20:22:02.299Z,81.60
2018-06-01T20:24:29.815Z,81.40
2018-06-01T20:26:58.099Z,81.90
2018-06-01T20:29:26.502Z,81.30
2018-06-01T20:31:54.023Z,81.30
2018-06-01T20:34:21.549Z,82.40
2018-06-01T20:36:49.072Z,82.10
2018-06-01T20:39:16.594Z,81.80
2018-06-01T20:41:44.916Z,81.20
2018-06-01T20:44:12.548Z,81.70
2018-06-01T20:46:40.861Z,81.40
2018-06-01T20:49:08.818Z,81.40
2018-06-01T20:51:37.266Z,81.20
2018-06-01T20:54:04.836Z,81.20
2018-06-01T20:56:32.412Z,81.50
2018-06-01T20:59:00.692Z,81.10
2018-06-01T21:01:28.971Z,81.20
2018-06-01T21:03:56.511Z,81.20
2018-06-01T21:06:24.028Z,81.60
2018-06-01T21:08:51.559Z,80.90
2018-06-01T21:11:19.072Z,80.60
2018-06-01T21:13:46.608Z,81.00
2018-06-01T21:16:14.123Z,81.40
2018-06-01T21:18:41.955Z,81.40
2018-06-01T21:21:09.557Z,81.30
2018-06-01T21:23:37.034Z,81.60
2018-06-01T21:26:04.558Z,81.30
2018-06-01T21:28:32.084Z,81.40
2018-06-01T21:30:59.651Z,81.60
2018-06-01T21:33:27.143Z,82.00
2018-06-01T21:35:54.665Z,81.60
2018-06-01T21:38:22.188Z,81.30
2018-06-01T21:40:49.698Z,81.10
2018-06-01T21:43:17.212Z,81.50
2018-06-01T21:45:44.730Z,81.40
2018-06-01T21:48:12.243Z,81.10
2018-06-01T21:50:39.759Z,81.00
2018-06-01T21:53:07.281Z,81.20
2018-06-01T21:55:34.803Z,81.20
2018-06-01T21:58:02.322Z,81.20
2018-06-01T22:00:29.839Z,80.70
2018-06-01T22:02:57.357Z,80.70
2018-06-01T22:05:24.871Z,80.50
2018-06-01T22:07:52.417Z,80.90
2018-06-01T22:10:19.942Z,80.70
2018-06-01T22:12:47.456Z,80.50
2018-06-01T22:15:14.975Z,80.80
2018-06-01T22:17:43.263Z,80.60
2018-06-01T22:20:10.775Z,80.60
2018-06-01T22:22:38.290Z,80.20
2018-06-01T22:25:05.811Z,80.20
2018-06-01T22:27:33.331Z,80.40
2018-06-01T22:30:00.843Z,80.50
2018-06-01T22:32:28.366Z,80.80
2018-06-01T22:34:55.881Z,80.70
2018-06-01T22:37:23.402Z,80.60
2018-06-01T22:39:50.916Z,80.80
2018-06-01T22:42:18.489Z,81.10
2018-06-01T22:44:45.979Z,80.90
2018-06-01T22:47:13.498Z,80.90
2018-06-01T22:49:41.011Z,80.80
2018-06-01T22:52:09.297Z,80.80
2018-06-01T22:54:36.810Z,80.80
2018-06-01T22:57:04.332Z,81.00
2018-06-01T22:59:32.639Z,80.50
2018-06-01T23:02:00.154Z,80.50
2018-06-01T23:04:27.666Z,80.20
2018-06-01T23:06:55.203Z,80.70
2018-06-01T23:09:22.719Z,79.90
2018-06-01T23:11:50.234Z,80.50
2018-06-01T23:14:17.747Z,80.80
2018-06-01T23:16:45.259Z,79.60
2018-06-01T23:19:12.775Z,79.80
2018-06-01T23:21:40.298Z,80.00
2018-06-01T23:24:07.815Z,79.80
2018-06-01T23:26:35.341Z,80.00
2018-06-01T23:29:03.630Z,80.00
2018-06-01T23:31:31.142Z,80.00
2018-06-01T23:33:58.655Z,79.50
2018-06-01T23:36:26.169Z,79.20
2018-06-01T23:38:53.698Z,78.60
2018-06-01T23:41:21.211Z,78.90
2018-06-01T23:43:48.723Z,79.00
2018-06-01T23:46:16.250Z,78.90
2018-06-01T23:48:43.771Z,79.10
2018-06-01T23:51:11.291Z,79.40
2018-06-01T23:53:38.803Z,79.70
2018-06-01T23:56:06.314Z,79.20
2018-06-01T23:58:34.266Z,79.10
